createdAt,value
2022-10-29T00:00:21.196Z,99360.25
2022-10-29T00:02:22.733Z,99357.78
2022-10-29T00:04:24.348Z,99360.28
2022-10-29T00:06:25.989Z,99361.69
2022-10-29T00:08:29.261Z,99354.53
2022-10-29T00:10:31.345Z,99362.81
2022-10-29T00:12:33.131Z,99357.59
2022-10-29T00:14:35.289Z,99367.81
2022-10-29T00:16:39.087Z,99357.31
2022-10-29T00:18:40.850Z,99357.34
2022-10-29T00:20:42.381Z,99358.19
2022-10-29T00:22:43.998Z,99350.47
2022-10-29T00:24:45.498Z,99345.22
2022-10-29T00:26:47.133Z,99349.09
2022-10-29T00:28:52.771Z,99347.72
2022-10-29T00:30:54.812Z,99343.59
2022-10-29T00:32:56.913Z,99346.63
2022-10-29T00:34:58.555Z,99348.56
2022-10-29T00:37:00.168Z,99360.47
2022-10-29T00:39:01.751Z,99356.88
2022-10-29T00:41:05.423Z,99348.34
2022-10-29T00:43:19.227Z,99349.16
2022-10-29T00:45:21.587Z,99353.03
2022-10-29T00:47:34.166Z,99343.94
2022-10-29T00:49:36.713Z,99351.41
2022-10-29T00:51:38.735Z,99348.38
2022-10-29T00:53:46.752Z,99346.44
2022-10-29T00:55:48.961Z,99350.34
2022-10-29T00:57:54.631Z,99354.19
2022-10-29T00:59:56.907Z,99350.06
2022-10-29T01:01:58.915Z,99341.22
2022-10-29T01:04:00.767Z,99350.91
2022-10-29T01:06:03.586Z,99342.34
2022-10-29T01:08:05.545Z,99351.75
2022-10-29T01:10:07.849Z,99337.38
2022-10-29T01:12:18.764Z,99336.84
2022-10-29T01:14:40.871Z,99330.50
2022-10-29T01:17:07.905Z,99331.09
2022-10-29T01:19:28.078Z,99331.63
2022-10-29T01:21:35.571Z,99327.50
2022-10-29T01:24:00.587Z,99312.59
2022-10-29T01:26:07.957Z,99316.75
2022-10-29T01:28:51.570Z,99316.50
2022-10-29T01:31:06.045Z,99312.34
2022-10-29T01:33:29.164Z,99316.22
2022-10-29T01:35:56.585Z,99318.41
2022-10-29T01:38:30.410Z,99317.03
2022-10-29T01:40:45.488Z,99322.28
2022-10-29T01:42:53.926Z,99310.13
2022-10-29T01:45:11.800Z,99325.00
2022-10-29T01:47:18.194Z,99317.56
2022-10-29T01:49:27.358Z,99313.97
2022-10-29T01:51:33.109Z,99323.09
2022-10-29T01:53:36.781Z,99312.34
2022-10-29T01:55:38.484Z,99314.56
2022-10-29T01:57:42.528Z,99318.41
2022-10-29T01:59:55.532Z,99318.41
2022-10-29T02:02:08.943Z,99314.28
2022-10-29T02:04:28.663Z,99319.25
2022-10-29T02:07:00.306Z,99314.00
2022-10-29T02:09:42.125Z,99313.44
2022-10-29T02:11:58.145Z,99304.34
2022-10-29T02:14:06.141Z,99298.84
2022-10-29T02:16:10.198Z,99299.13
2022-10-29T02:18:11.900Z,99298.03
2022-10-29T02:20:15.198Z,99293.06
2022-10-29T02:22:16.828Z,99298.56
2022-10-29T02:24:18.304Z,99299.41
2022-10-29T02:26:19.921Z,99301.34
2022-10-29T02:28:21.658Z,99295.28
2022-10-29T02:30:23.254Z,99295.28
2022-10-29T02:32:24.948Z,99300.78
2022-10-29T02:34:26.460Z,99302.97
2022-10-29T02:36:28.027Z,99299.66
2022-10-29T02:38:29.657Z,99298.84
2022-10-29T02:40:31.082Z,99299.41
2022-10-29T02:42:32.688Z,99299.66
2022-10-29T02:44:34.344Z,99301.59
2022-10-29T02:46:39.699Z,99301.88
2022-10-29T02:48:41.950Z,99304.63
2022-10-29T02:50:43.665Z,99298.28
2022-10-29T02:52:45.496Z,99293.91
2022-10-29T02:54:46.956Z,99295.00
2022-10-29T02:56:48.563Z,99300.22
2022-10-29T02:58:50.134Z,99287.81
2022-10-29T03:00:52.496Z,99281.75
2022-10-29T03:02:54.505Z,99283.69
2022-10-29T03:04:56.221Z,99293.34
2022-10-29T03:06:58.050Z,99288.41
2022-10-29T03:08:59.667Z,99286.72
2022-10-29T03:11:01.447Z,99285.91
2022-10-29T03:13:03.088Z,99274.88
2022-10-29T03:15:04.988Z,99283.69
2022-10-29T03:17:06.904Z,99283.69
2022-10-29T03:19:08.613Z,99289.78
2022-10-29T03:21:10.244Z,99284.81
2022-10-29T03:23:11.713Z,99285.88
2022-10-29T03:25:13.286Z,99298.56
2022-10-29T03:27:15.693Z,99299.94
2022-10-29T03:29:17.155Z,99302.69
2022-10-29T03:31:18.910Z,99298.56
2022-10-29T03:33:20.672Z,99300.19
2022-10-29T03:35:22.284Z,99304.91
2022-10-29T03:37:23.968Z,99297.19
2022-10-29T03:39:25.494Z,99302.69
2022-10-29T03:41:26.986Z,99302.41
2022-10-29T03:43:28.693Z,99301.84
2022-10-29T03:45:30.300Z,99301.56
2022-10-29T03:47:33.408Z,99295.22
2022-10-29T03:49:34.985Z,99300.47
2022-10-29T03:51:36.531Z,99305.69
2022-10-29T03:53:38.179Z,99303.22
2022-10-29T03:55:39.723Z,99307.88
2022-10-29T03:57:41.410Z,99312.84
2022-10-29T03:59:45.916Z,99317.22
2022-10-29T04:01:50.423Z,99313.09
2022-10-29T04:03:52.275Z,99312.28
2022-10-29T04:05:54.291Z,99308.94
2022-10-29T04:07:55.980Z,99312.81
2022-10-29T04:09:57.910Z,99317.44
2022-10-29T04:12:01.181Z,99315.53
2022-10-29T04:14:02.826Z,99322.41
2022-10-29T04:16:04.579Z,99324.31
2022-10-29T04:18:06.566Z,99313.28
2022-10-29T04:20:19.023Z,99318.25
2022-10-29T04:29:35.693Z,99329.78
2022-10-29T04:31:37.662Z,99321.81
2022-10-29T04:33:39.311Z,99323.97
2022-10-29T04:35:40.760Z,99325.91
2022-10-29T04:37:42.309Z,99325.34
2022-10-29T04:39:43.965Z,99327.53
2022-10-29T04:41:49.536Z,99333.03
2022-10-29T04:43:51.130Z,99335.75
2022-10-29T04:45:53.745Z,99339.63
2022-10-29T04:48:02.725Z,99336.84
2022-10-29T04:50:04.589Z,99339.31
2022-10-29T04:52:06.100Z,99338.78
2022-10-29T04:54:07.783Z,99336.28
2022-10-29T04:56:09.228Z,99328.31
2022-10-29T04:58:16.689Z,99327.75
2022-10-29T05:00:18.960Z,99326.91
2022-10-29T05:02:20.588Z,99328.84
2022-10-29T05:04:22.133Z,99323.59
2022-10-29T05:06:23.753Z,99322.78
2022-10-29T05:08:25.594Z,99325.53
2022-10-29T05:10:29.303Z,99316.72
2022-10-29T05:12:30.882Z,99320.00
2022-10-29T05:14:32.737Z,99318.34
2022-10-29T05:16:34.625Z,99312.03
2022-10-29T05:18:37.559Z,99322.19
2022-10-29T05:20:39.113Z,99319.69
2022-10-29T05:22:40.781Z,99314.19
2022-10-29T05:24:42.349Z,99318.06
2022-10-29T05:26:43.972Z,99318.59
2022-10-29T05:28:45.559Z,99321.34
2022-10-29T05:30:48.822Z,99318.88
2022-10-29T05:32:50.462Z,99314.44
2022-10-29T05:34:52.166Z,99324.06
2022-10-29T05:36:53.883Z,99316.88
2022-10-29T05:38:55.513Z,99321.31
2022-10-29T05:40:59.976Z,99321.31
2022-10-29T05:43:02.111Z,99324.91
2022-10-29T05:45:04.125Z,99320.47
2022-10-29T05:47:07.073Z,99324.06
2022-10-29T05:49:09.037Z,99320.47
2022-10-29T05:51:10.736Z,99319.63
2022-10-29T05:53:14.349Z,99324.91
2022-10-29T05:55:16.086Z,99325.72
2022-10-29T05:57:17.617Z,99324.63
2022-10-29T05:59:19.307Z,99330.94
2022-10-29T06:01:21.133Z,99322.69
2022-10-29T06:03:23.215Z,99333.97
2022-10-29T06:05:25.652Z,99330.13
2022-10-29T06:07:27.102Z,99331.78
2022-10-29T06:09:28.774Z,99330.38
2022-10-29T06:11:30.427Z,99325.13
2022-10-29T06:13:32.368Z,99325.13
2022-10-29T06:15:34.525Z,99325.13
2022-10-29T06:17:40.756Z,99319.63
2022-10-29T06:19:42.815Z,99318.00
2022-10-29T06:21:45.242Z,99327.34
2022-10-29T06:23:47.046Z,99325.13
2022-10-29T06:25:48.797Z,99326.81
2022-10-29T06:28:05.939Z,99334.50
2022-10-29T06:30:08.362Z,99324.34
2022-10-29T06:32:10.164Z,99321.00
2022-10-29T06:34:13.581Z,99318.00
2022-10-29T06:36:15.272Z,99312.50
2022-10-29T06:38:17.347Z,99323.50
2022-10-29T06:40:19.376Z,99319.63
2022-10-29T06:42:21.250Z,99318.00
2022-10-29T06:44:22.873Z,99319.63
2022-10-29T06:46:24.710Z,99310.59
2022-10-29T06:48:29.482Z,99316.09
2022-10-29T06:50:31.336Z,99313.34
2022-10-29T06:52:33.540Z,99313.63
2022-10-29T06:54:35.199Z,99320.78
2022-10-29T06:56:39.945Z,99318.03
2022-10-29T06:58:41.624Z,99319.41
2022-10-29T07:00:44.438Z,99316.38
2022-10-29T07:02:46.410Z,99315.03
2022-10-29T07:04:49.509Z,99310.38
2022-10-29T07:06:51.196Z,99315.34
2022-10-29T07:08:52.827Z,99310.38
2022-10-29T07:10:54.569Z,99315.59
2022-10-29T07:12:56.268Z,99322.50
2022-10-29T07:14:57.990Z,99317.00
2022-10-29T07:16:59.709Z,99313.16
2022-10-29T07:19:02.253Z,99321.13
2022-10-29T07:21:04.559Z,99324.72
2022-10-29T07:23:06.973Z,99329.13
2022-10-29T07:25:10.370Z,99326.66
2022-10-29T07:27:12.018Z,99325.28
2022-10-29T07:29:13.943Z,99336.31
2022-10-29T07:31:19.254Z,99335.53
2022-10-29T07:33:21.038Z,99328.66
2022-10-29T07:35:22.478Z,99333.06
2022-10-29T07:37:23.948Z,99334.75
2022-10-29T07:39:25.737Z,99337.78
2022-10-29T07:41:27.491Z,99342.22
2022-10-29T07:43:29.487Z,99344.19
2022-10-29T07:45:31.732Z,99348.63
2022-10-29T07:47:33.299Z,99344.75
2022-10-29T07:49:35.000Z,99350.59
2022-10-29T07:51:36.626Z,99351.97
2022-10-29T07:53:38.587Z,99346.75
2022-10-29T07:55:40.338Z,99343.19
2022-10-29T07:57:41.745Z,99353.94
2022-10-29T07:59:43.352Z,99349.25
2022-10-29T08:01:45.504Z,99349.28
2022-10-29T08:03:49.393Z,99347.88
2022-10-29T08:05:56.270Z,99348.19
2022-10-29T08:07:59.392Z,99347.91
2022-10-29T08:10:01.364Z,99344.88
2022-10-29T08:12:05.196Z,99348.44
2022-10-29T08:14:06.856Z,99344.88
2022-10-29T08:16:08.435Z,99335.50
2022-10-29T08:18:14.876Z,99338.25
2022-10-29T08:20:16.982Z,99348.47
2022-10-29T08:22:18.672Z,99339.91
2022-10-29T08:24:20.300Z,99346.25
2022-10-29T08:26:22.156Z,99336.84
2022-10-29T08:28:25.750Z,99334.34
2022-10-29T08:30:28.057Z,99330.19
2022-10-29T08:32:29.634Z,99339.00
2022-10-29T08:34:31.338Z,99341.72
2022-10-29T08:36:33.137Z,99342.56
2022-10-29T08:38:34.845Z,99345.84
2022-10-29T08:40:54.687Z,99349.13
2022-10-29T08:43:08.662Z,99343.03
2022-10-29T08:45:24.482Z,99339.44
2022-10-29T08:47:26.210Z,99339.69
2022-10-29T08:49:36.510Z,99342.16
2022-10-29T08:51:44.504Z,99343.84
2022-10-29T08:53:58.672Z,99351.81
2022-10-29T08:56:11.181Z,99349.03
2022-10-29T08:58:35.007Z,99348.22
2022-10-29T09:00:41.963Z,99350.69
2022-10-29T09:02:43.779Z,99347.94
2022-10-29T09:04:45.805Z,99339.91
2022-10-29T09:07:00.942Z,99346.81
2022-10-29T09:09:21.271Z,99337.38
2022-10-29T09:11:51.941Z,99340.13
2022-10-29T09:14:31.651Z,99342.31
2022-10-29T09:16:44.085Z,99343.38
2022-10-29T09:19:19.864Z,99346.13
2022-10-29T09:21:38.962Z,99338.38
2022-10-29T09:23:54.929Z,99345.47
2022-10-29T09:26:02.882Z,99354.88
2022-10-29T09:28:30.501Z,99345.72
2022-10-29T09:30:45.859Z,99353.41
2022-10-29T09:32:59.786Z,99336.47
2022-10-29T09:35:15.641Z,99334.78
2022-10-29T09:37:23.824Z,99327.00
2022-10-29T09:39:46.079Z,99323.94
2022-10-29T09:41:49.060Z,99326.91
2022-10-29T09:44:02.030Z,99328.22
2022-10-29T09:46:12.342Z,99327.34
2022-10-29T09:48:27.120Z,99324.22
2022-10-29T09:50:48.387Z,99323.91
2022-10-29T09:52:50.226Z,99324.38
2022-10-29T09:54:54.737Z,99327.91
2022-10-29T09:56:58.913Z,99330.31
2022-10-29T09:59:38.084Z,99327.50
2022-10-29T10:01:40.046Z,99327.69
2022-10-29T10:03:45.800Z,99318.50
2022-10-29T10:06:01.587Z,99323.16
2022-10-29T10:08:13.585Z,99328.03
2022-10-29T10:10:23.936Z,99330.47
2022-10-29T10:12:37.670Z,99318.22
2022-10-29T10:14:39.237Z,99318.69
2022-10-29T10:16:41.168Z,99320.81
2022-10-29T10:20:59.131Z,99309.06
2022-10-29T10:23:01.950Z,99308.41
2022-10-29T10:25:26.880Z,99306.66
2022-10-29T10:27:31.914Z,99304.88
2022-10-29T10:29:33.523Z,99306.97
2022-10-29T10:31:35.015Z,99297.78
2022-10-29T10:33:44.225Z,99304.59
2022-10-29T10:35:45.935Z,99313.06
2022-10-29T10:37:47.730Z,99308.50
2022-10-29T10:40:03.057Z,99304.72
2022-10-29T10:42:15.320Z,99304.31
2022-10-29T10:44:18.536Z,99298.09
2022-10-29T10:46:27.204Z,99292.69
2022-10-29T10:48:33.655Z,99294.72
2022-10-29T10:50:36.984Z,99292.09
2022-10-29T10:52:39.647Z,99287.78
2022-10-29T10:54:46.376Z,99285.41
2022-10-29T10:57:01.214Z,99284.25
2022-10-29T10:59:11.298Z,99280.44
2022-10-29T11:01:20.371Z,99282.81
2022-10-29T11:03:31.306Z,99283.94
2022-10-29T11:05:40.668Z,99274.47
2022-10-29T11:07:49.382Z,99276.31
2022-10-29T11:09:54.394Z,99262.09
2022-10-29T11:12:06.240Z,99270.09
2022-10-29T11:14:17.811Z,99263.63
2022-10-29T11:16:39.973Z,99271.94
2022-10-29T11:18:57.270Z,99268.06
2022-10-29T11:21:09.906Z,99265.03
2022-10-29T11:23:29.581Z,99263.44
2022-10-29T11:25:43.459Z,99259.09
2022-10-29T11:28:06.165Z,99253.94
2022-10-29T11:30:13.855Z,99247.91
2022-10-29T11:33:06.545Z,99239.59
2022-10-29T11:35:18.451Z,99248.47
2022-10-29T11:37:48.423Z,99239.06
2022-10-29T11:40:06.371Z,99239.56
2022-10-29T11:42:09.950Z,99239.59
2022-10-29T11:44:14.545Z,99234.91
2022-10-29T11:46:46.835Z,99232.97
2022-10-29T11:49:14.563Z,99225.13
2022-10-29T11:51:26.232Z,99219.75
2022-10-29T11:53:57.710Z,99213.19
2022-10-29T11:56:25.343Z,99209.75
2022-10-29T11:58:42.705Z,99201.91
2022-10-29T12:01:21.078Z,99202.88
2022-10-29T12:03:52.029Z,99204.69
2022-10-29T12:06:16.329Z,99202.03
2022-10-29T12:08:37.975Z,99203.00
2022-10-29T12:10:51.913Z,99194.44
2022-10-29T12:13:32.943Z,99190.63
2022-10-29T12:15:47.152Z,99187.63
2022-10-29T12:17:57.779Z,99188.56
2022-10-29T12:20:15.343Z,99185.53
2022-10-29T12:22:19.851Z,99167.72
2022-10-29T12:25:09.404Z,99159.91
2022-10-29T12:27:33.009Z,99168.84
2022-10-29T12:30:05.868Z,99163.34
2022-10-29T12:32:23.000Z,99163.25
2022-10-29T12:34:55.624Z,99164.72
2022-10-29T12:37:23.306Z,99161.22
2022-10-29T12:39:49.339Z,99152.47
2022-10-29T12:41:53.512Z,99152.94
2022-10-29T12:44:18.857Z,99151.34
2022-10-29T12:46:31.193Z,99146.06
2022-10-29T12:48:57.687Z,99151.66
2022-10-29T12:51:24.455Z,99145.59
2022-10-29T12:53:40.325Z,99138.34
2022-10-29T12:55:42.845Z,99143.94
2022-10-29T12:57:44.637Z,99143.47
2022-10-29T12:59:46.397Z,99146.28
2022-10-29T13:04:28.303Z,99140.88
2022-10-29T13:06:42.421Z,99136.47
2022-10-29T13:08:56.283Z,99132.38
2022-10-29T13:10:58.035Z,99132.38
2022-10-29T13:13:00.051Z,99128.75
2022-10-29T13:15:15.435Z,99129.44
2022-10-29T13:17:26.237Z,99125.00
2022-10-29T13:19:29.533Z,99120.09
2022-10-29T13:22:04.620Z,99115.19
2022-10-29T13:24:16.908Z,99115.19
2022-10-29T13:26:55.437Z,99118.81
2022-10-29T13:28:57.336Z,99113.53
2022-10-29T13:30:58.810Z,99106.81
2022-10-29T13:33:00.927Z,99113.53
2022-10-29T13:35:22.802Z,99111.09
2022-10-29T13:37:46.255Z,99107.00
2022-10-29T13:40:22.782Z,99116.06
2022-10-29T13:42:27.221Z,99114.44
2022-10-29T13:44:29.258Z,99117.56
2022-10-29T13:47:01.102Z,99123.53
2022-10-29T13:49:30.957Z,99107.06
2022-10-29T13:51:43.508Z,99110.22
2022-10-29T13:54:03.099Z,99106.94
2022-10-29T13:56:09.752Z,99112.84
2022-10-29T13:58:30.294Z,99107.28
2022-10-29T14:00:36.185Z,99113.69
2022-10-29T14:02:43.995Z,99104.47
2022-10-29T14:04:51.000Z,99103.34
2022-10-29T14:06:57.456Z,99097.75
2022-10-29T14:09:11.997Z,99094.59
2022-10-29T14:11:20.865Z,99093.28
2022-10-29T14:13:41.182Z,99097.94
2022-10-29T14:16:03.749Z,99092.34
2022-10-29T14:18:38.846Z,99091.06
2022-10-29T14:20:40.577Z,99093.84
2022-10-29T14:22:42.237Z,99097.47
2022-10-29T14:24:43.918Z,99099.75
2022-10-29T14:26:45.613Z,99093.38
2022-10-29T14:28:47.309Z,99092.56
2022-10-29T14:31:06.665Z,99094.06
2022-10-29T14:33:19.159Z,99087.97
2022-10-29T14:35:20.760Z,99090.75
2022-10-29T14:37:31.840Z,99086.66
2022-10-29T14:39:55.580Z,99087.00
2022-10-29T14:41:59.422Z,99082.06
2022-10-29T14:44:25.103Z,99081.59
2022-10-29T14:46:28.957Z,99089.50
2022-10-29T14:48:30.792Z,99084.59
2022-10-29T14:50:32.303Z,99088.88
2022-10-29T14:52:38.885Z,99089.56
2022-10-29T14:54:42.168Z,99085.81
2022-10-29T14:56:44.015Z,99094.03
2022-10-29T14:58:49.044Z,99089.47
2022-10-29T15:00:57.132Z,99088.53
2022-10-29T15:02:59.658Z,99090.03
2022-10-29T15:05:07.275Z,99092.31
2022-10-29T15:07:24.399Z,99089.03
2022-10-29T15:09:28.042Z,99090.88
2022-10-29T15:11:34.239Z,99090.41
2022-10-29T15:13:36.827Z,99089.44
2022-10-29T15:15:38.616Z,99081.41
2022-10-29T15:18:02.296Z,99083.22
2022-10-29T15:20:06.395Z,99089.13
2022-10-29T15:22:09.682Z,99087.16
2022-10-29T15:24:20.650Z,99091.81
2022-10-29T15:26:22.970Z,99089.19
2022-10-29T15:28:27.512Z,99089.84
2022-10-29T15:30:37.760Z,99088.41
2022-10-29T15:32:39.863Z,99089.09
2022-10-29T15:34:50.591Z,99091.56
2022-10-29T15:36:57.733Z,99089.28
2022-10-29T15:39:19.555Z,99082.94
2022-10-29T15:41:50.497Z,99087.50
2022-10-29T15:43:57.326Z,99087.22
2022-10-29T15:46:00.997Z,99086.25
2022-10-29T15:48:08.719Z,99085.59
2022-10-29T15:50:16.128Z,99084.56
2022-10-29T15:52:20.283Z,99083.97
2022-10-29T15:54:22.147Z,99082.81
2022-10-29T15:56:28.107Z,99080.19
2022-10-29T15:58:30.129Z,99085.44
2022-10-29T16:00:32.373Z,99081.19
2022-10-29T16:02:34.382Z,99085.28
2022-10-29T16:04:36.158Z,99083.16
2022-10-29T16:06:37.706Z,99076.91
2022-10-29T16:08:51.358Z,99082.50
2022-10-29T16:10:54.473Z,99075.94
2022-10-29T16:12:56.606Z,99078.09
2022-10-29T16:14:58.477Z,99080.16
2022-10-29T16:17:00.224Z,99079.50
2022-10-29T16:19:01.729Z,99078.84
2022-10-29T16:21:06.725Z,99087.19
2022-10-29T16:23:10.570Z,99081.44
2022-10-29T16:25:30.046Z,99084.72
2022-10-29T16:27:31.731Z,99082.88
2022-10-29T16:29:33.347Z,99085.81
2022-10-29T16:31:35.144Z,99088.28
2022-10-29T16:33:36.849Z,99086.28
2022-10-29T16:35:38.492Z,99081.69
2022-10-29T16:37:40.284Z,99084.31
2022-10-29T16:39:42.083Z,99083.91
2022-10-29T16:41:43.987Z,99080.13
2022-10-29T16:43:46.839Z,99085.00
2022-10-29T16:45:48.529Z,99080.72
2022-10-29T16:47:53.522Z,99085.28
2022-10-29T16:49:55.304Z,99095.44
2022-10-29T16:51:57.125Z,99089.69
2022-10-29T16:53:58.784Z,99097.03
2022-10-29T16:56:01.729Z,99098.31
2022-10-29T16:58:04.159Z,99095.66
2022-10-29T17:00:07.526Z,99093.84
2022-10-29T17:02:12.301Z,99094.28
2022-10-29T17:04:14.203Z,99097.19
2022-10-29T17:06:15.912Z,99098.97
2022-10-29T17:08:17.711Z,99095.50
2022-10-29T17:10:19.343Z,99094.50
2022-10-29T17:12:21.450Z,99093.16
2022-10-29T17:14:26.771Z,99095.72
2022-10-29T17:16:28.437Z,99105.84
2022-10-29T17:18:30.321Z,99099.25
2022-10-29T17:20:32.497Z,99105.75
2022-10-29T17:22:34.441Z,99106.38
2022-10-29T17:24:36.609Z,99107.03
2022-10-29T17:26:39.028Z,99111.56
2022-10-29T17:28:40.755Z,99105.50
2022-10-29T17:30:42.461Z,99106.13
2022-10-29T17:32:44.103Z,99107.41
2022-10-29T17:34:45.690Z,99109.97
2022-10-29T17:36:47.432Z,99118.09
2022-10-29T17:38:49.240Z,99117.59
2022-10-29T17:40:50.797Z,99112.78
2022-10-29T17:42:52.586Z,99114.22
2022-10-29T17:44:54.208Z,99118.44
2022-10-29T17:46:55.960Z,99114.66
2022-10-29T17:48:58.095Z,99117.56
2022-10-29T17:51:02.032Z,99124.56
2022-10-29T17:53:04.055Z,99125.75
2022-10-29T17:55:06.151Z,99123.31
2022-10-29T17:57:07.812Z,99126.19
2022-10-29T17:59:10.007Z,99126.28
2022-10-29T18:01:12.100Z,99127.22
2022-10-29T18:03:14.114Z,99128.97
2022-10-29T18:05:15.765Z,99124.34
2022-10-29T18:07:17.762Z,99123.34
2022-10-29T18:09:21.229Z,99119.84
2022-10-29T18:11:25.119Z,99131.22
2022-10-29T18:13:26.786Z,99120.22
2022-10-29T18:15:29.036Z,99124.75
2022-10-29T18:17:34.289Z,99131.44
2022-10-29T18:19:36.071Z,99118.47
2022-10-29T18:21:37.982Z,99122.19
2022-10-29T18:23:40.258Z,99128.66
2022-10-29T18:25:42.342Z,99125.66
2022-10-29T18:27:44.162Z,99121.56
2022-10-29T18:29:46.436Z,99124.13
2022-10-29T18:31:48.911Z,99133.06
2022-10-29T18:33:52.227Z,99125.34
2022-10-29T18:36:00.264Z,99137.88
2022-10-29T18:38:02.065Z,99137.63
2022-10-29T18:40:04.356Z,99138.53
2022-10-29T18:42:06.322Z,99141.13
2022-10-29T18:44:08.000Z,99137.00
2022-10-29T18:46:10.488Z,99131.47
2022-10-29T18:48:12.217Z,99130.13
2022-10-29T18:50:14.136Z,99116.53
2022-10-29T18:52:15.820Z,99117.97
2022-10-29T18:54:19.612Z,99119.72
2022-10-29T18:56:22.809Z,99127.53
2022-10-29T18:58:26.656Z,99133.06
2022-10-29T19:00:28.509Z,99126.47
2022-10-29T19:02:30.223Z,99118.47
2022-10-29T19:04:31.806Z,99131.00
2022-10-29T19:06:36.436Z,99125.53
2022-10-29T19:08:39.979Z,99120.59
2022-10-29T19:10:43.328Z,99126.41
2022-10-29T19:12:45.085Z,99125.38
2022-10-29T19:14:46.636Z,99121.28
2022-10-29T19:16:48.606Z,99109.69
2022-10-29T19:19:03.124Z,99111.69
2022-10-29T19:21:10.282Z,99118.06
2022-10-29T19:23:13.899Z,99113.13
2022-10-29T19:25:16.637Z,99112.09
2022-10-29T19:27:18.841Z,99108.00
2022-10-29T19:29:20.953Z,99111.34
2022-10-29T19:31:26.604Z,99104.75
2022-10-29T19:33:28.786Z,99107.84
2022-10-29T19:35:30.737Z,99113.44
2022-10-29T19:37:32.626Z,99105.19
2022-10-29T19:39:34.311Z,99115.75
2022-10-29T19:41:36.253Z,99105.28
2022-10-29T19:43:40.401Z,99118.59
2022-10-29T19:45:42.035Z,99117.53
2022-10-29T19:47:44.062Z,99109.03
2022-10-29T19:49:45.710Z,99119.25
2022-10-29T19:51:48.293Z,99109.63
2022-10-29T19:53:53.545Z,99112.16
2022-10-29T19:55:55.340Z,99119.94
2022-10-29T19:57:57.242Z,99115.81
2022-10-29T19:59:59.200Z,99119.72
2022-10-29T20:02:01.250Z,99117.53
2022-10-29T20:04:03.340Z,99118.97
2022-10-29T20:06:06.647Z,99117.31
2022-10-29T20:08:11.510Z,99115.94
2022-10-29T20:10:20.839Z,99115.75
2022-10-29T20:12:22.659Z,99117.97
2022-10-29T20:14:28.893Z,99120.22
2022-10-29T20:16:31.053Z,99126.06
2022-10-29T20:18:34.911Z,99118.34
2022-10-29T20:20:36.639Z,99123.03
2022-10-29T20:22:38.730Z,99124.19
2022-10-29T20:24:40.543Z,99122.00
2022-10-29T20:26:42.596Z,99129.78
2022-10-29T20:28:44.735Z,99122.06
2022-10-29T20:30:46.834Z,99130.94
2022-10-29T20:32:49.560Z,99133.19
2022-10-29T20:34:52.487Z,99136.84
2022-10-29T20:36:54.338Z,99133.25
2022-10-29T20:38:56.423Z,99137.13
2022-10-29T20:40:57.952Z,99136.59
2022-10-29T20:42:59.862Z,99134.44
2022-10-29T20:45:01.685Z,99134.44
2022-10-29T20:47:03.456Z,99131.66
2022-10-29T20:49:05.290Z,99133.06
2022-10-29T20:51:07.261Z,99126.72
2022-10-29T20:55:16.469Z,99124.00
2022-10-29T20:57:18.367Z,99122.94
2022-10-29T20:59:20.334Z,99127.69
2022-10-29T21:01:24.725Z,99130.97
2022-10-29T21:03:28.828Z,99129.63
2022-10-29T21:05:30.559Z,99120.81
2022-10-29T21:07:32.622Z,99119.44
2022-10-29T21:09:34.607Z,99124.47
2022-10-29T21:11:36.513Z,99125.03
2022-10-29T21:13:38.650Z,99116.50
2022-10-29T21:15:40.504Z,99118.47
2022-10-29T21:17:42.561Z,99118.47
2022-10-29T21:19:44.460Z,99126.81
2022-10-29T21:21:46.741Z,99127.38
2022-10-29T21:23:49.335Z,99128.53
2022-10-29T21:25:54.516Z,99123.00
2022-10-29T21:27:56.859Z,99125.78
2022-10-29T21:29:58.880Z,99127.72
2022-10-29T21:32:00.793Z,99124.16
2022-10-29T21:34:02.637Z,99130.78
2022-10-29T21:36:04.897Z,99130.25
2022-10-29T21:38:06.855Z,99125.00
2022-10-29T21:40:09.774Z,99120.88
2022-10-29T21:42:11.401Z,99124.25
2022-10-29T21:44:14.210Z,99119.00
2022-10-29T21:46:15.804Z,99124.31
2022-10-29T21:48:17.830Z,99128.16
2022-10-29T21:50:19.543Z,99121.59
2022-10-29T21:52:21.435Z,99120.22
2022-10-29T21:54:25.755Z,99129.09
2022-10-29T21:56:30.023Z,99118.91
2022-10-29T21:58:32.533Z,99120.84
2022-10-29T22:00:34.361Z,99119.75
2022-10-29T22:02:36.100Z,99117.03
2022-10-29T22:04:37.608Z,99120.09
2022-10-29T22:06:39.068Z,99116.00
2022-10-29T22:08:41.402Z,99116.56
2022-10-29T22:10:43.105Z,99111.09
2022-10-29T22:12:45.003Z,99120.50
2022-10-29T22:14:47.582Z,99117.13
2022-10-29T22:16:49.028Z,99115.78
2022-10-29T22:18:51.300Z,99112.78
2022-10-29T22:21:14.447Z,99118.59
2022-10-29T22:25:22.771Z,99104.81
2022-10-29T22:27:24.568Z,99106.78
2022-10-29T22:29:26.546Z,99110.13
2022-10-29T22:31:28.477Z,99107.91
2022-10-29T22:33:30.830Z,99105.72
2022-10-29T22:35:33.646Z,99107.44
2022-10-29T22:37:35.379Z,99106.06
2022-10-29T22:39:37.015Z,99110.75
2022-10-29T22:41:38.514Z,99102.22
2022-10-29T22:43:41.034Z,99104.44
2022-10-29T22:45:44.272Z,99098.69
2022-10-29T22:47:45.890Z,99109.16
2022-10-29T22:49:47.919Z,99101.19
2022-10-29T22:51:49.566Z,99092.66
2022-10-29T22:53:52.481Z,99094.88
2022-10-29T22:55:54.535Z,99093.22
2022-10-29T22:57:56.056Z,99102.09
2022-10-29T22:59:57.711Z,99087.19
2022-10-29T23:01:59.337Z,99086.66
2022-10-29T23:04:01.706Z,99096.88
2022-10-29T23:06:04.743Z,99091.34
2022-10-29T23:08:06.445Z,99089.41
2022-10-29T23:10:08.468Z,99092.19
2022-10-29T23:12:09.972Z,99096.03
2022-10-29T23:14:11.829Z,99093.28
2022-10-29T23:16:14.024Z,99089.16
2022-10-29T23:18:15.914Z,99089.44
2022-10-29T23:20:17.457Z,99091.16
2022-10-29T23:22:20.923Z,99083.13
2022-10-29T23:24:23.923Z,99082.91
2022-10-29T23:26:26.143Z,99086.75
2022-10-29T23:28:32.956Z,99085.38
2022-10-29T23:30:35.302Z,99090.91
2022-10-29T23:32:36.764Z,99092.81
2022-10-29T23:34:38.589Z,99094.75
2022-10-29T23:36:40.254Z,99094.75
2022-10-29T23:38:42.213Z,99090.63
2022-10-29T23:40:45.262Z,99085.94
2022-10-29T23:42:46.839Z,99091.19
2022-10-29T23:44:48.568Z,99088.97
2022-10-29T23:46:50.215Z,99084.56
2022-10-29T23:48:52.053Z,99079.03
2022-10-29T23:50:54.560Z,99073.53
2022-10-29T23:52:56.527Z,99071.91
2022-10-29T23:54:58.626Z,99068.84
2022-10-29T23:57:00.153Z,99060.88
2022-10-29T23:59:01.987Z,99071.91
